sensor_id;sensor_type;location;lat;lon;timestamp;pressure;altitude;pressure_sealevel;temperature;humidity
6974;BME280;3527;52.376;8.990;2022-08-16T00:01:33;100232.91;;;21.92;86.86
6974;BME280;3527;52.376;8.990;2022-08-16T00:04:27;100232.53;;;21.89;86.93
6974;BME280;3527;52.376;8.990;2022-08-16T00:07:14;100236.78;;;21.85;87.87
6974;BME280;3527;52.376;8.990;2022-08-16T00:10:04;100237.50;;;21.76;88.25
6974;BME280;3527;52.376;8.990;2022-08-16T00:12:52;100239.09;;;21.77;88.42
6974;BME280;3527;52.376;8.990;2022-08-16T00:15:44;100232.75;;;21.73;88.77
6974;BME280;3527;52.376;8.990;2022-08-16T00:18:38;100226.94;;;21.77;88.01
6974;BME280;3527;52.376;8.990;2022-08-16T00:21:27;100225.75;;;21.65;88.14
6974;BME280;3527;52.376;8.990;2022-08-16T00:24:28;100222.44;;;21.67;87.93
6974;BME280;3527;52.376;8.990;2022-08-16T00:27:18;100220.28;;;21.58;87.84
6974;BME280;3527;52.376;8.990;2022-08-16T00:30:09;100226.69;;;21.49;88.70
6974;BME280;3527;52.376;8.990;2022-08-16T00:33:11;100214.47;;;21.40;89.11
6974;BME280;3527;52.376;8.990;2022-08-16T00:35:58;100217.88;;;21.35;89.42
6974;BME280;3527;52.376;8.990;2022-08-16T00:38:47;100226.97;;;21.29;90.06
6974;BME280;3527;52.376;8.990;2022-08-16T00:41:34;100219.84;;;21.25;90.11
6974;BME280;3527;52.376;8.990;2022-08-16T00:44:24;100229.69;;;21.20;90.48
6974;BME280;3527;52.376;8.990;2022-08-16T00:47:21;100225.06;;;21.14;90.85
6974;BME280;3527;52.376;8.990;2022-08-16T00:50:19;100223.59;;;21.09;91.47
6974;BME280;3527;52.376;8.990;2022-08-16T00:53:22;100236.31;;;21.05;91.62
6974;BME280;3527;52.376;8.990;2022-08-16T00:56:12;100234.84;;;21.00;92.16
6974;BME280;3527;52.376;8.990;2022-08-16T00:59:24;100232.47;;;20.86;93.42
6974;BME280;3527;52.376;8.990;2022-08-16T01:02:12;100228.59;;;20.80;93.69
6974;BME280;3527;52.376;8.990;2022-08-16T01:05:18;100239.28;;;20.76;94.73
6974;BME280;3527;52.376;8.990;2022-08-16T01:08:11;100240.88;;;20.77;95.00
6974;BME280;3527;52.376;8.990;2022-08-16T01:11:20;100227.13;;;20.75;95.21
6974;BME280;3527;52.376;8.990;2022-08-16T01:14:25;100241.78;;;20.74;95.90
6974;BME280;3527;52.376;8.990;2022-08-16T01:17:17;100237.81;;;20.71;95.82
6974;BME280;3527;52.376;8.990;2022-08-16T01:20:11;100241.78;;;20.74;96.41
6974;BME280;3527;52.376;8.990;2022-08-16T01:23:20;100247.78;;;20.76;97.54
6974;BME280;3527;52.376;8.990;2022-08-16T01:26:10;100256.88;;;20.83;97.67
6974;BME280;3527;52.376;8.990;2022-08-16T01:29:22;100266.19;;;20.84;98.21
6974;BME280;3527;52.376;8.990;2022-08-16T01:32:33;100277.31;;;20.91;98.04
6974;BME280;3527;52.376;8.990;2022-08-16T01:35:32;100278.44;;;20.93;97.64
6974;BME280;3527;52.376;8.990;2022-08-16T01:38:23;100277.41;;;21.00;97.78
6974;BME280;3527;52.376;8.990;2022-08-16T01:41:23;100278.09;;;21.04;97.54
6974;BME280;3527;52.376;8.990;2022-08-16T01:44:11;100270.25;;;21.08;97.27
6974;BME280;3527;52.376;8.990;2022-08-16T01:47:04;100272.88;;;21.15;96.77
6974;BME280;3527;52.376;8.990;2022-08-16T01:49:52;100267.88;;;21.19;96.20
6974;BME280;3527;52.376;8.990;2022-08-16T01:52:59;100275.59;;;21.19;95.05
6974;BME280;3527;52.376;8.990;2022-08-16T01:55:48;100276.28;;;21.10;95.40
6974;BME280;3527;52.376;8.990;2022-08-16T01:58:39;100279.47;;;21.12;95.39
6974;BME280;3527;52.376;8.990;2022-08-16T02:01:33;100286.72;;;21.13;95.13
6974;BME280;3527;52.376;8.990;2022-08-16T02:04:22;100282.75;;;21.11;94.79
6974;BME280;3527;52.376;8.990;2022-08-16T02:07:30;100293.66;;;20.99;94.69
6974;BME280;3527;52.376;8.990;2022-08-16T02:10:18;100279.34;;;20.90;94.94
6974;BME280;3527;52.376;8.990;2022-08-16T02:13:07;100284.47;;;20.83;95.07
6974;BME280;3527;52.376;8.990;2022-08-16T02:15:54;100279.91;;;20.73;95.68
6974;BME280;3527;52.376;8.990;2022-08-16T02:18:42;100274.34;;;20.56;96.61
6974;BME280;3527;52.376;8.990;2022-08-16T02:21:32;100276.47;;;20.52;97.22
6974;BME280;3527;52.376;8.990;2022-08-16T02:24:19;100270.56;;;20.47;97.81
6974;BME280;3527;52.376;8.990;2022-08-16T02:27:18;100264.69;;;20.41;97.98
6974;BME280;3527;52.376;8.990;2022-08-16T02:30:08;100273.72;;;20.36;98.29
6974;BME280;3527;52.376;8.990;2022-08-16T02:33:19;100268.44;;;20.22;99.01
6974;BME280;3527;52.376;8.990;2022-08-16T02:36:27;100269.56;;;20.12;99.77
6974;BME280;3527;52.376;8.990;2022-08-16T02:39:34;100271.47;;;20.02;100.00
6974;BME280;3527;52.376;8.990;2022-08-16T02:42:22;100274.38;;;19.98;100.00
6974;BME280;3527;52.376;8.990;2022-08-16T02:45:09;100271.75;;;19.91;100.00
6974;BME280;3527;52.376;8.990;2022-08-16T02:47:58;100271.38;;;19.77;100.00
6974;BME280;3527;52.376;8.990;2022-08-16T02:51:07;100273.41;;;19.76;100.00
6974;BME280;3527;52.376;8.990;2022-08-16T02:53:57;100275.53;;;19.72;100.00
6974;BME280;3527;52.376;8.990;2022-08-16T02:56:44;100274.94;;;19.64;100.00
6974;BME280;3527;52.376;8.990;2022-08-16T02:59:33;100276.97;;;19.64;100.00
6974;BME280;3527;52.376;8.990;2022-08-16T03:02:27;100272.53;;;19.63;100.00
6974;BME280;3527;52.376;8.990;2022-08-16T03:05:17;100271.66;;;19.66;100.00
6974;BME280;3527;52.376;8.990;2022-08-16T03:08:05;100276.41;;;19.69;100.00
6974;BME280;3527;52.376;8.990;2022-08-16T03:11:13;100265.88;;;19.69;100.00
6974;BME280;3527;52.376;8.990;2022-08-16T03:14:07;100272.44;;;19.66;100.00
6974;BME280;3527;52.376;8.990;2022-08-16T03:16:58;100279.59;;;19.71;100.00
6974;BME280;3527;52.376;8.990;2022-08-16T03:19:47;100273.06;;;19.74;100.00
6974;BME280;3527;52.376;8.990;2022-08-16T03:22:48;100273.75;;;19.78;100.00
6974;BME280;3527;52.376;8.990;2022-08-16T03:25:35;100271.28;;;19.80;100.00
6974;BME280;3527;52.376;8.990;2022-08-16T03:28:30;100271.28;;;19.80;100.00
6974;BME280;3527;52.376;8.990;2022-08-16T03:31:18;100271.28;;;19.80;100.00
6974;BME280;3527;52.376;8.990;2022-08-16T03:34:05;100272.06;;;19.81;100.00
6974;BME280;3527;52.376;8.990;2022-08-16T03:36:54;100269.25;;;19.81;100.00
6974;BME280;3527;52.376;8.990;2022-08-16T03:39:41;100268.00;;;19.82;100.00
6974;BME280;3527;52.376;8.990;2022-08-16T03:42:29;100274.09;;;19.80;100.00
6974;BME280;3527;52.376;8.990;2022-08-16T03:45:16;100274.22;;;19.77;100.00
6974;BME280;3527;52.376;8.990;2022-08-16T03:48:07;100274.31;;;19.73;100.00
6974;BME280;3527;52.376;8.990;2022-08-16T03:50:54;100278.00;;;19.70;100.00
6974;BME280;3527;52.376;8.990;2022-08-16T03:53:46;100276.41;;;19.69;100.00
6974;BME280;3527;52.376;8.990;2022-08-16T03:56:47;100272.44;;;19.66;100.00
6974;BME280;3527;52.376;8.990;2022-08-16T03:59:44;100279.78;;;19.64;100.00
6974;BME280;3527;52.376;8.990;2022-08-16T04:02:31;100275.22;;;19.54;100.00
6974;BME280;3527;52.376;8.990;2022-08-16T04:05:18;100288.59;;;19.53;100.00
6974;BME280;3527;52.376;8.990;2022-08-16T04:08:08;100284.94;;;19.53;100.00
6974;BME280;3527;52.376;8.990;2022-08-16T04:11:10;100284.94;;;19.53;100.00
6974;BME280;3527;52.376;8.990;2022-08-16T04:14:02;100286.63;;;19.50;100.00
6974;BME280;3527;52.376;8.990;2022-08-16T04:17:09;100284.13;;;19.52;100.00
6974;BME280;3527;52.376;8.990;2022-08-16T04:19:56;100278.56;;;19.49;100.00
6974;BME280;3527;52.376;8.990;2022-08-16T04:22:45;100279.47;;;19.45;100.00
6974;BME280;3527;52.376;8.990;2022-08-16T04:25:35;100284.03;;;19.39;100.00
6974;BME280;3527;52.376;8.990;2022-08-16T04:28:22;100278.72;;;19.41;100.00
6974;BME280;3527;52.376;8.990;2022-08-16T04:31:29;100281.22;;;19.39;100.00
6974;BME280;3527;52.376;8.990;2022-08-16T04:34:16;100283.09;;;19.30;100.00
6974;BME280;3527;52.376;8.990;2022-08-16T04:37:10;100291.31;;;19.24;100.00
6974;BME280;3527;52.376;8.990;2022-08-16T04:39:57;100289.72;;;19.23;100.00
6974;BME280;3527;52.376;8.990;2022-08-16T04:42:45;100296.63;;;19.22;100.00
6974;BME280;3527;52.376;8.990;2022-08-16T04:45:32;100289.63;;;19.27;100.00
6974;BME280;3527;52.376;8.990;2022-08-16T04:48:22;100287.50;;;19.31;100.00
6974;BME280;3527;52.376;8.990;2022-08-16T04:51:19;100299.19;;;19.33;100.00
6974;BME280;3527;52.376;8.990;2022-08-16T04:54:07;100297.41;;;19.39;100.00
6974;BME280;3527;52.376;8.990;2022-08-16T04:56:55;100296.06;;;19.43;100.00
6974;BME280;3527;52.376;8.990;2022-08-16T04:59:42;100299.28;;;19.45;100.00
6974;BME280;3527;52.376;8.990;2022-08-16T05:02:29;100301.72;;;19.43;100.00
6974;BME280;3527;52.376;8.990;2022-08-16T05:05:28;100303.16;;;19.35;100.00
6974;BME280;3527;52.376;8.990;2022-08-16T05:08:21;100310.97;;;19.48;100.00
6974;BME280;3527;52.376;8.990;2022-08-16T05:11:16;100322.03;;;19.58;100.00
6974;BME280;3527;52.376;8.990;2022-08-16T05:14:04;100321.75;;;19.69;100.00
6974;BME280;3527;52.376;8.990;2022-08-16T05:16:52;100316.59;;;19.80;100.00
6974;BME280;3527;52.376;8.990;2022-08-16T05:19:40;100321.31;;;19.99;100.00
6974;BME280;3527;52.376;8.990;2022-08-16T05:22:44;100325.25;;;20.18;100.00
6974;BME280;3527;52.376;8.990;2022-08-16T05:25:31;100326.44;;;20.33;100.00
6974;BME280;3527;52.376;8.990;2022-08-16T05:28:33;100328.25;;;20.56;100.00
6974;BME280;3527;52.376;8.990;2022-08-16T05:31:28;100331.78;;;20.73;98.79
6974;BME280;3527;52.376;8.990;2022-08-16T05:34:16;100340.06;;;20.80;96.16
6974;BME280;3527;52.376;8.990;2022-08-16T05:37:08;100337.81;;;21.01;94.05
6974;BME280;3527;52.376;8.990;2022-08-16T05:39:55;100342.84;;;21.09;91.96
6974;BME280;3527;52.376;8.990;2022-08-16T05:42:42;100345.56;;;21.13;89.97
6974;BME280;3527;52.376;8.990;2022-08-16T05:45:34;100362.38;;;21.33;89.02
6974;BME280;3527;52.376;8.990;2022-08-16T05:48:22;100368.97;;;21.42;87.47
6974;BME280;3527;52.376;8.990;2022-08-16T05:51:13;100368.03;;;21.33;86.78
6974;BME280;3527;52.376;8.990;2022-08-16T05:54:21;100378.72;;;21.54;86.12
6974;BME280;3527;52.376;8.990;2022-08-16T05:57:11;100379.63;;;21.51;85.92
6974;BME280;3527;52.376;8.990;2022-08-16T05:59:59;100391.41;;;21.62;85.82
6974;BME280;3527;52.376;8.990;2022-08-16T06:02:54;100394.94;;;21.79;84.85
6974;BME280;3527;52.376;8.990;2022-08-16T06:05:45;100393.00;;;21.76;83.57
6974;BME280;3527;52.376;8.990;2022-08-16T06:08:33;100401.28;;;21.96;83.08
6974;BME280;3527;52.376;8.990;2022-08-16T06:11:32;100402.19;;;22.05;82.53
6974;BME280;3527;52.376;8.990;2022-08-16T06:14:19;100400.63;;;22.26;81.71
6974;BME280;3527;52.376;8.990;2022-08-16T06:17:07;100403.16;;;22.24;79.77
6974;BME280;3527;52.376;8.990;2022-08-16T06:20:00;100411.31;;;22.57;78.77
6974;BME280;3527;52.376;8.990;2022-08-16T06:22:49;100414.06;;;22.82;77.76
6974;BME280;3527;52.376;8.990;2022-08-16T06:25:49;100413.44;;;22.87;76.62
6974;BME280;3527;52.376;8.990;2022-08-16T06:28:39;100409.91;;;23.05;76.26
6974;BME280;3527;52.376;8.990;2022-08-16T06:31:27;100411.06;;;23.17;75.13
6974;BME280;3527;52.376;8.990;2022-08-16T06:34:16;100417.19;;;23.37;74.17
6974;BME280;3527;52.376;8.990;2022-08-16T06:37:24;100414.16;;;23.62;73.04
6974;BME280;3527;52.376;8.990;2022-08-16T06:40:23;100414.06;;;23.44;72.68
6974;BME280;3527;52.376;8.990;2022-08-16T06:43:19;100429.69;;;23.30;73.04
6974;BME280;3527;52.376;8.990;2022-08-16T06:46:22;100425.47;;;23.53;73.03
6974;BME280;3527;52.376;8.990;2022-08-16T06:49:17;100436.03;;;23.65;73.25
6974;BME280;3527;52.376;8.990;2022-08-16T06:52:04;100426.53;;;23.68;72.43
6974;BME280;3527;52.376;8.990;2022-08-16T06:55:14;100421.78;;;23.74;71.56
6974;BME280;3527;52.376;8.990;2022-08-16T06:58:01;100431.34;;;23.99;71.11
6974;BME280;3527;52.376;8.990;2022-08-16T07:01:07;100442.63;;;24.12;70.78
6974;BME280;3527;52.376;8.990;2022-08-16T07:04:00;100425.88;;;24.32;69.27
6974;BME280;3527;52.376;8.990;2022-08-16T07:06:56;100428.25;;;24.33;69.12
6974;BME280;3527;52.376;8.990;2022-08-16T07:09:46;100434.59;;;24.28;69.37
6974;BME280;3527;52.376;8.990;2022-08-16T07:12:37;100435.84;;;24.64;68.64
6974;BME280;3527;52.376;8.990;2022-08-16T07:15:40;100432.38;;;24.51;67.64
6974;BME280;3527;52.376;8.990;2022-08-16T07:18:36;100436.03;;;24.42;67.98
6974;BME280;3527;52.376;8.990;2022-08-16T07:21:43;100447.28;;;24.73;68.41
6974;BME280;3527;52.376;8.990;2022-08-16T07:24:45;100449.44;;;25.15;67.51
6974;BME280;3527;52.376;8.990;2022-08-16T07:27:36;100450.13;;;25.01;67.03
6974;BME280;3527;52.376;8.990;2022-08-16T07:30:24;100463.25;;;25.25;66.50
6974;BME280;3527;52.376;8.990;2022-08-16T07:33:32;100467.28;;;25.01;65.80
6974;BME280;3527;52.376;8.990;2022-08-16T07:36:39;100472.53;;;25.44;65.27
6974;BME280;3527;52.376;8.990;2022-08-16T07:39:31;100481.44;;;25.88;64.86
6974;BME280;3527;52.376;8.990;2022-08-16T07:42:20;100464.22;;;25.65;63.55
6974;BME280;3527;52.376;8.990;2022-08-16T07:45:14;100473.06;;;25.85;63.62
6974;BME280;3527;52.376;8.990;2022-08-16T07:48:03;100466.16;;;25.92;63.47
6974;BME280;3527;52.376;8.990;2022-08-16T07:51:01;100469.22;;;25.88;63.48
6974;BME280;3527;52.376;8.990;2022-08-16T07:53:54;100460.88;;;25.75;63.20
6974;BME280;3527;52.376;8.990;2022-08-16T07:56:55;100470.38;;;25.30;64.56
6974;BME280;3527;52.376;8.990;2022-08-16T07:59:43;100445.00;;;25.14;63.68
6974;BME280;3527;52.376;8.990;2022-08-16T08:02:35;100454.28;;;25.42;64.13
6974;BME280;3527;52.376;8.990;2022-08-16T08:05:30;100467.38;;;25.76;63.50
6974;BME280;3527;52.376;8.990;2022-08-16T08:08:22;100457.06;;;26.02;63.02
6974;BME280;3527;52.376;8.990;2022-08-16T08:11:30;100469.72;;;26.10;62.60
6974;BME280;3527;52.376;8.990;2022-08-16T08:14:20;100459.81;;;25.54;62.47
6974;BME280;3527;52.376;8.990;2022-08-16T08:17:16;100481.19;;;26.10;62.74
6974;BME280;3527;52.376;8.990;2022-08-16T08:20:09;100469.75;;;26.01;61.16
6974;BME280;3527;52.376;8.990;2022-08-16T08:22:57;100471.81;;;26.10;60.80
6974;BME280;3527;52.376;8.990;2022-08-16T08:25:46;100477.22;;;26.56;59.99
6974;BME280;3527;52.376;8.990;2022-08-16T08:28:41;100485.38;;;26.72;60.32
6974;BME280;3527;52.376;8.990;2022-08-16T08:31:33;100483.94;;;26.91;59.87
6974;BME280;3527;52.376;8.990;2022-08-16T08:34:32;100482.00;;;27.27;58.83
6974;BME280;3527;52.376;8.990;2022-08-16T08:37:34;100472.78;;;27.52;57.83
6974;BME280;3527;52.376;8.990;2022-08-16T08:40:42;100474.88;;;27.22;57.81
6974;BME280;3527;52.376;8.990;2022-08-16T08:43:35;100482.09;;;27.62;57.13
6974;BME280;3527;52.376;8.990;2022-08-16T08:46:36;100473.00;;;27.19;56.55
6974;BME280;3527;52.376;8.990;2022-08-16T08:49:28;100476.38;;;27.18;56.54
6974;BME280;3527;52.376;8.990;2022-08-16T08:52:36;100468.34;;;27.36;55.09
6974;BME280;3527;52.376;8.990;2022-08-16T08:55:26;100473.28;;;27.51;55.19
6974;BME280;3527;52.376;8.990;2022-08-16T08:58:16;100498.31;;;27.65;56.15
6974;BME280;3527;52.376;8.990;2022-08-16T09:01:05;100478.13;;;27.74;54.85
6974;BME280;3527;52.376;8.990;2022-08-16T09:03:55;100481.28;;;27.76;53.88
6974;BME280;3527;52.376;8.990;2022-08-16T09:06:42;100487.59;;;27.95;54.24
6974;BME280;3527;52.376;8.990;2022-08-16T09:09:30;100488.09;;;28.14;54.37
6974;BME280;3527;52.376;8.990;2022-08-16T09:12:19;100481.47;;;28.43;52.99
6974;BME280;3527;52.376;8.990;2022-08-16T09:15:22;100463.88;;;28.35;52.20
6974;BME280;3527;52.376;8.990;2022-08-16T09:18:09;100462.03;;;28.52;51.88
6974;BME280;3527;52.376;8.990;2022-08-16T09:21:13;100472.50;;;28.55;51.50
6974;BME280;3527;52.376;8.990;2022-08-16T09:24:03;100477.34;;;28.70;51.22
6974;BME280;3527;52.376;8.990;2022-08-16T09:26:57;100462.59;;;28.36;51.23
6974;BME280;3527;52.376;8.990;2022-08-16T09:29:44;100481.44;;;29.04;50.80
6974;BME280;3527;52.376;8.990;2022-08-16T09:32:32;100465.72;;;28.18;51.01
6974;BME280;3527;52.376;8.990;2022-08-16T09:35:22;100488.34;;;28.91;51.56
6974;BME280;3527;52.376;8.990;2022-08-16T09:38:10;100484.00;;;28.55;52.43
6974;BME280;3527;52.376;8.990;2022-08-16T09:41:18;100477.97;;;28.33;52.02
6974;BME280;3527;52.376;8.990;2022-08-16T09:44:05;100477.94;;;28.74;51.42
6974;BME280;3527;52.376;8.990;2022-08-16T09:47:12;100473.16;;;29.11;50.10
6974;BME280;3527;52.376;8.990;2022-08-16T09:49:59;100477.47;;;29.01;50.23
6974;BME280;3527;52.376;8.990;2022-08-16T09:52:46;100473.94;;;29.12;50.12
6974;BME280;3527;52.376;8.990;2022-08-16T09:55:34;100483.13;;;29.73;48.94
6974;BME280;3527;52.376;8.990;2022-08-16T09:58:30;100479.81;;;30.23;48.74
6974;BME280;3527;52.376;8.990;2022-08-16T10:01:28;100464.81;;;29.13;48.57
6974;BME280;3527;52.376;8.990;2022-08-16T10:04:19;100471.22;;;29.92;47.85
6974;BME280;3527;52.376;8.990;2022-08-16T10:07:25;100480.47;;;29.12;49.88
6974;BME280;3527;52.376;8.990;2022-08-16T10:10:30;100481.19;;;29.59;48.83
6974;BME280;3527;52.376;8.990;2022-08-16T10:13:18;100469.38;;;29.57;48.34
6974;BME280;3527;52.376;8.990;2022-08-16T10:16:05;100464.16;;;29.93;47.81
6974;BME280;3527;52.376;8.990;2022-08-16T10:18:55;100481.31;;;30.13;48.02
6974;BME280;3527;52.376;8.990;2022-08-16T10:21:52;100473.66;;;29.67;48.33
6974;BME280;3527;52.376;8.990;2022-08-16T10:24:42;100474.88;;;30.35;47.54
6974;BME280;3527;52.376;8.990;2022-08-16T10:27:46;100464.09;;;30.24;46.98
6974;BME280;3527;52.376;8.990;2022-08-16T10:30:42;100466.25;;;29.92;47.73
6974;BME280;3527;52.376;8.990;2022-08-16T10:33:32;100470.59;;;29.76;47.86
6974;BME280;3527;52.376;8.990;2022-08-16T10:36:20;100450.28;;;29.91;46.19
6974;BME280;3527;52.376;8.990;2022-08-16T10:39:25;100479.69;;;30.49;46.45
6974;BME280;3527;52.376;8.990;2022-08-16T10:42:27;100445.59;;;29.94;45.57
6974;BME280;3527;52.376;8.990;2022-08-16T10:45:16;100476.03;;;30.54;45.97
6974;BME280;3527;52.376;8.990;2022-08-16T10:48:06;100465.31;;;30.60;45.39
6974;BME280;3527;52.376;8.990;2022-08-16T10:51:13;100468.06;;;30.97;44.89
6974;BME280;3527;52.376;8.990;2022-08-16T10:54:00;100465.91;;;30.81;45.20
6974;BME280;3527;52.376;8.990;2022-08-16T10:56:50;100464.66;;;31.04;44.41
6974;BME280;3527;52.376;8.990;2022-08-16T10:59:42;100458.31;;;30.72;44.59
6974;BME280;3527;52.376;8.990;2022-08-16T11:02:46;100456.28;;;31.06;44.52
6974;BME280;3527;52.376;8.990;2022-08-16T11:05:46;100459.22;;;31.51;43.26
6974;BME280;3527;52.376;8.990;2022-08-16T11:08:52;100437.44;;;31.39;42.73
6974;BME280;3527;52.376;8.990;2022-08-16T11:12:00;100439.00;;;31.74;41.98
6974;BME280;3527;52.376;8.990;2022-08-16T11:15:00;100452.13;;;31.80;42.29
6974;BME280;3527;52.376;8.990;2022-08-16T11:18:05;100429.00;;;31.08;41.92
6974;BME280;3527;52.376;8.990;2022-08-16T11:21:17;100437.94;;;31.65;40.32
6974;BME280;3527;52.376;8.990;2022-08-16T11:24:14;100423.81;;;31.23;40.39
6974;BME280;3527;52.376;8.990;2022-08-16T11:27:22;100442.41;;;31.72;39.85
6974;BME280;3527;52.376;8.990;2022-08-16T11:30:23;100432.44;;;31.67;39.80
6974;BME280;3527;52.376;8.990;2022-08-16T11:33:24;100439.00;;;31.74;39.92
6974;BME280;3527;52.376;8.990;2022-08-16T11:36:31;100443.72;;;31.77;40.10
6974;BME280;3527;52.376;8.990;2022-08-16T11:39:18;100461.59;;;31.81;40.80
6974;BME280;3527;52.376;8.990;2022-08-16T11:42:05;100437.19;;;31.26;41.21
6974;BME280;3527;52.376;8.990;2022-08-16T11:45:15;100420.84;;;30.78;41.64
6974;BME280;3527;52.376;8.990;2022-08-16T11:48:05;100440.03;;;31.09;41.73
6974;BME280;3527;52.376;8.990;2022-08-16T11:50:53;100435.34;;;31.51;40.71
6974;BME280;3527;52.376;8.990;2022-08-16T11:53:40;100436.13;;;31.29;41.29
6974;BME280;3527;52.376;8.990;2022-08-16T11:56:27;100444.16;;;32.20;39.93
6974;BME280;3527;52.376;8.990;2022-08-16T11:59:36;100432.97;;;31.83;39.86
6974;BME280;3527;52.376;8.990;2022-08-16T12:02:25;100438.75;;;31.72;40.08
6974;BME280;3527;52.376;8.990;2022-08-16T12:05:19;100454.19;;;32.08;39.88
6974;BME280;3527;52.376;8.990;2022-08-16T12:08:07;100431.28;;;32.26;38.62
6974;BME280;3527;52.376;8.990;2022-08-16T12:10:54;100441.09;;;32.59;38.76
6974;BME280;3527;52.376;8.990;2022-08-16T12:13:45;100435.31;;;32.59;38.57
6974;BME280;3527;52.376;8.990;2022-08-16T12:16:34;100441.38;;;33.43;37.21
6974;BME280;3527;52.376;8.990;2022-08-16T12:19:23;100412.91;;;32.18;37.74
6974;BME280;3527;52.376;8.990;2022-08-16T12:22:19;100408.75;;;32.08;37.97
6974;BME280;3527;52.376;8.990;2022-08-16T12:25:10;100448.31;;;32.24;39.79
6974;BME280;3527;52.376;8.990;2022-08-16T12:28:02;100429.84;;;31.58;40.36
6974;BME280;3527;52.376;8.990;2022-08-16T12:30:49;100424.31;;;31.49;40.50
6974;BME280;3527;52.376;8.990;2022-08-16T12:33:39;100421.09;;;31.97;40.01
6974;BME280;3527;52.376;8.990;2022-08-16T12:36:36;100407.72;;;32.00;38.24
6974;BME280;3527;52.376;8.990;2022-08-16T12:39:29;100417.88;;;32.29;38.30
6974;BME280;3527;52.376;8.990;2022-08-16T12:42:17;100405.63;;;31.95;38.05
6974;BME280;3527;52.376;8.990;2022-08-16T12:45:22;100432.47;;;31.79;39.30
6974;BME280;3527;52.376;8.990;2022-08-16T12:48:10;100431.81;;;32.19;38.78
6974;BME280;3527;52.376;8.990;2022-08-16T12:51:22;100425.59;;;31.71;39.08
6974;BME280;3527;52.376;8.990;2022-08-16T12:54:19;100405.19;;;31.35;38.36
6974;BME280;3527;52.376;8.990;2022-08-16T12:57:07;100427.91;;;32.00;38.31
6974;BME280;3527;52.376;8.990;2022-08-16T13:00:00;100421.38;;;32.05;38.34
6974;BME280;3527;52.376;8.990;2022-08-16T13:02:47;100424.41;;;32.41;37.74
6974;BME280;3527;52.376;8.990;2022-08-16T13:05:36;100432.63;;;32.09;38.87
6974;BME280;3527;52.376;8.990;2022-08-16T13:08:41;100442.91;;;32.68;38.50
6974;BME280;3527;52.376;8.990;2022-08-16T13:11:35;100425.84;;;32.64;36.92
6974;BME280;3527;52.376;8.990;2022-08-16T13:14:31;100425.28;;;33.12;36.45
6974;BME280;3527;52.376;8.990;2022-08-16T13:17:23;100413.03;;;33.01;35.66
6974;BME280;3527;52.376;8.990;2022-08-16T13:20:19;100411.94;;;33.39;35.12
6974;BME280;3527;52.376;8.990;2022-08-16T13:23:08;100416.47;;;33.29;35.01
6974;BME280;3527;52.376;8.990;2022-08-16T13:26:03;100426.59;;;33.17;36.13
6974;BME280;3527;52.376;8.990;2022-08-16T13:28:54;100407.03;;;32.46;36.30
6974;BME280;3527;52.376;8.990;2022-08-16T13:31:42;100408.56;;;32.53;36.14
6974;BME280;3527;52.376;8.990;2022-08-16T13:34:29;100399.34;;;32.54;36.16
6974;BME280;3527;52.376;8.990;2022-08-16T13:37:20;100416.66;;;33.07;35.40
6974;BME280;3527;52.376;8.990;2022-08-16T13:40:08;100416.06;;;33.14;36.05
6974;BME280;3527;52.376;8.990;2022-08-16T13:43:06;100419.72;;;33.80;34.79
6974;BME280;3527;52.376;8.990;2022-08-16T13:45:57;100412.25;;;33.30;35.52
6974;BME280;3527;52.376;8.990;2022-08-16T13:48:50;100407.06;;;32.41;36.57
6974;BME280;3527;52.376;8.990;2022-08-16T13:51:39;100391.75;;;31.82;37.33
6974;BME280;3527;52.376;8.990;2022-08-16T13:54:26;100399.41;;;31.57;38.44
6974;BME280;3527;52.376;8.990;2022-08-16T13:57:17;100396.50;;;31.01;39.87
6974;BME280;3527;52.376;8.990;2022-08-16T14:00:07;100381.53;;;30.81;39.39
6974;BME280;3527;52.376;8.990;2022-08-16T14:02:57;100378.94;;;31.44;38.04
6974;BME280;3527;52.376;8.990;2022-08-16T14:05:45;100392.19;;;32.03;38.37
6974;BME280;3527;52.376;8.990;2022-08-16T14:08:32;100393.00;;;32.09;37.41
6974;BME280;3527;52.376;8.990;2022-08-16T14:11:19;100399.09;;;32.52;36.81
6974;BME280;3527;52.376;8.990;2022-08-16T14:14:07;100401.78;;;32.45;36.65
6974;BME280;3527;52.376;8.990;2022-08-16T14:16:59;100387.50;;;32.06;37.02
6974;BME280;3527;52.376;8.990;2022-08-16T14:19:48;100408.13;;;32.90;36.79
6974;BME280;3527;52.376;8.990;2022-08-16T14:22:37;100410.97;;;32.96;37.02
6974;BME280;3527;52.376;8.990;2022-08-16T14:25:28;100383.97;;;32.76;35.78
6974;BME280;3527;52.376;8.990;2022-08-16T14:28:14;100393.81;;;32.62;36.98
6974;BME280;3527;52.376;8.990;2022-08-16T14:31:02;100396.81;;;32.40;36.72
6974;BME280;3527;52.376;8.990;2022-08-16T14:33:51;100400.00;;;32.77;37.79
6974;BME280;3527;52.376;8.990;2022-08-16T14:36:41;100399.16;;;32.94;36.46
6974;BME280;3527;52.376;8.990;2022-08-16T14:39:29;100391.34;;;33.13;36.25
6974;BME280;3527;52.376;8.990;2022-08-16T14:42:20;100403.44;;;33.17;36.06
6974;BME280;3527;52.376;8.990;2022-08-16T14:45:10;100412.38;;;33.49;36.41
6974;BME280;3527;52.376;8.990;2022-08-16T14:47:59;100399.88;;;33.00;36.53
6974;BME280;3527;52.376;8.990;2022-08-16T14:50:46;100406.28;;;33.23;37.03
6974;BME280;3527;52.376;8.990;2022-08-16T14:53:34;100405.34;;;33.44;36.91
6974;BME280;3527;52.376;8.990;2022-08-16T14:56:23;100387.34;;;33.52;36.23
6974;BME280;3527;52.376;8.990;2022-08-16T14:59:29;100391.75;;;33.28;36.60
6974;BME280;3527;52.376;8.990;2022-08-16T15:02:25;100398.13;;;33.21;36.52
6974;BME280;3527;52.376;8.990;2022-08-16T15:05:22;100401.53;;;32.90;37.31
6974;BME280;3527;52.376;8.990;2022-08-16T15:08:10;100393.69;;;32.32;37.22
6974;BME280;3527;52.376;8.990;2022-08-16T15:10:57;100387.50;;;32.00;38.11
6974;BME280;3527;52.376;8.990;2022-08-16T15:13:45;100397.22;;;31.97;38.69
6974;BME280;3527;52.376;8.990;2022-08-16T15:16:37;100378.19;;;31.32;38.43
6974;BME280;3527;52.376;8.990;2022-08-16T15:19:32;100382.38;;;31.26;38.89
6974;BME280;3527;52.376;8.990;2022-08-16T15:22:27;100391.53;;;31.41;39.26
6974;BME280;3527;52.376;8.990;2022-08-16T15:25:24;100392.84;;;31.57;38.56
6974;BME280;3527;52.376;8.990;2022-08-16T15:28:15;100412.50;;;31.81;39.07
6974;BME280;3527;52.376;8.990;2022-08-16T15:31:17;100413.91;;;32.32;38.49